Time;durP1;ratioP1;P1;durP2;ratioP2;P2;SDS_P1;SDS_P2;PMS_P1;PMS_P2;Temp;Humidity;BMP_temperature;BMP_pressure;BME280_temperature;BME280_humidity;BME280_pressure;Samples;Min_cycle;Max_cycle;Signal;HPM_P1;HPM_P2
2022/06/04 00:00:18;;;;;;;10.80;3.60;;;;;;;16.35;56.93;101655.94;5044698;28;20379;-67
2022/06/04 00:02:45;;;;;;;10.73;3.60;;;;;;;16.41;56.69;101657.69;5043314;28;20099;-67
2022/06/04 00:05:15;;;;;;;12.63;3.80;;;;;;;16.32;57.06;101653.28;5045449;28;20028;-67
2022/06/04 00:07:41;;;;;;;10.98;3.70;;;;;;;16.33;57.28;101655.06;5042400;28;20472;-67
2022/06/04 00:15:48;;;;;;;13.05;3.83;;;;;;;16.12;57.84;101636.50;5043660;28;20119;-67
2022/06/04 00:18:15;;;;;;;11.95;3.90;;;;;;;16.07;58.01;101641.88;5045049;28;20021;-67
2022/06/04 00:20:40;;;;;;;12.73;3.90;;;;;;;16.08;57.71;101637.47;5042026;28;20109;-66
2022/06/04 00:23:08;;;;;;;14.10;3.90;;;;;;;16.01;58.10;101642.78;5045560;28;20108;-67
2022/06/04 00:25:35;;;;;;;12.95;4.03;;;;;;;15.99;58.16;101643.72;5038005;28;20057;-67
2022/06/04 00:28:03;;;;;;;11.20;3.92;;;;;;;15.92;58.41;101650.84;5044840;28;20036;-69
2022/06/04 00:30:29;;;;;;;12.75;4.10;;;;;;;15.84;58.46;101647.34;5042246;28;20090;-67
2022/06/04 00:32:55;;;;;;;13.80;4.03;;;;;;;15.76;58.83;101652.69;5043769;28;20053;-67
2022/06/04 00:35:20;;;;;;;12.07;3.83;;;;;;;15.77;58.73;101661.53;5043388;28;20017;-67
2022/06/04 00:37:47;;;;;;;10.57;3.92;;;;;;;15.79;58.15;101662.47;5042940;28;20040;-66
2022/06/04 00:40:34;;;;;;;14.38;3.80;;;;;;;15.79;58.36;101662.47;5044479;28;20538;-67
2022/06/04 00:42:59;;;;;;;15.45;3.97;;;;;;;15.75;58.62;101658.00;5044393;28;20476;-67
2022/06/04 00:45:36;;;;;;;13.93;4.07;;;;;;;15.74;57.99;101654.47;5042955;28;20025;-67
2022/06/04 00:48:08;;;;;;;14.70;4.00;;;;;;;15.67;58.63;101637.59;5043168;28;20441;-67
2022/06/04 00:50:38;;;;;;;9.98;3.85;;;;;;;15.63;58.00;101641.16;5037500;28;20028;-67
2022/06/04 00:53:08;;;;;;;13.07;3.92;;;;;;;15.64;57.47;101648.28;5041572;28;20094;-67
2022/06/04 00:56:09;;;;;;;15.82;3.83;;;;;;;15.59;57.18;101671.38;5044735;28;20056;-67
2022/06/04 00:58:56;;;;;;;11.23;3.90;;;;;;;15.54;57.48;101672.28;5015384;28;20037;-67
2022/06/04 01:01:26;;;;;;;11.82;3.75;;;;;;;15.52;57.80;101667.88;5021226;28;20037;-67
2022/06/04 01:03:56;;;;;;;12.50;3.90;;;;;;;15.54;57.84;101675.84;5020918;28;20049;-62
2022/06/04 01:06:36;;;;;;;11.13;3.75;;;;;;;15.49;57.82;101682.97;5020853;28;20485;-62
2022/06/04 01:09:13;;;;;;;12.88;3.90;;;;;;;15.54;57.58;101697.19;5019398;28;20038;-61
2022/06/04 01:12:09;;;;;;;10.13;3.80;;;;;;;15.50;57.29;101708.72;5019382;28;20026;-63
2022/06/04 01:15:12;;;;;;;14.60;4.07;;;;;;;15.45;57.50;101706.09;5022520;28;20500;-62
2022/06/04 01:18:21;;;;;;;13.77;4.07;;;;;;;15.45;57.26;101702.50;4963885;28;20039;-62
2022/06/04 01:20:55;;;;;;;14.40;4.10;;;;;;;15.43;58.10;101693.66;4904579;29;20049;-61
2022/06/04 01:23:51;;;;;;;12.38;3.80;;;;;;;15.40;57.65;101696.31;4905268;29;20043;-61
2022/06/04 01:26:31;;;;;;;13.93;4.05;;;;;;;15.31;57.95;101694.56;4905905;29;20024;-61
2022/06/04 01:29:02;;;;;;;13.45;4.00;;;;;;;15.26;58.23;101702.56;4905789;29;20051;-62
2022/06/04 01:31:36;;;;;;;14.45;4.25;;;;;;;15.19;58.67;101698.13;4904047;29;20480;-61
2022/06/04 01:34:07;;;;;;;12.95;4.00;;;;;;;15.14;58.34;101705.22;4906123;29;20059;-61
2022/06/04 01:36:55;;;;;;;10.10;3.90;;;;;;;15.20;58.09;101705.22;4889114;29;20095;-61
2022/06/04 01:39:24;;;;;;;11.57;4.00;;;;;;;15.19;58.82;101711.44;4892129;29;20024;-61
2022/06/04 01:41:56;;;;;;;13.30;4.07;;;;;;;15.21;58.17;101707.00;4895520;29;20033;-61
2022/06/04 01:44:32;;;;;;;11.93;4.03;;;;;;;15.12;58.59;101707.03;4895315;29;20060;-61
2022/06/04 01:47:02;;;;;;;12.70;4.03;;;;;;;14.99;58.61;101703.47;4895282;29;20045;-63
2022/06/04 01:50:10;;;;;;;11.68;4.00;;;;;;;15.00;58.44;101715.91;4895350;29;20053;-61
2022/06/04 01:52:39;;;;;;;14.80;4.03;;;;;;;14.94;59.52;101723.88;4850465;29;20374;-61
2022/06/04 01:55:11;;;;;;;11.00;3.97;;;;;;;14.97;59.34;101730.09;4882904;29;20189;-62
2022/06/04 01:57:46;;;;;;;14.40;4.22;;;;;;;14.93;59.45;101744.28;4925887;29;20046;-62
2022/06/04 02:00:16;;;;;;;13.05;4.20;;;;;;;14.88;59.60;101732.78;4938599;29;20079;-62
2022/06/04 02:02:47;;;;;;;15.32;4.25;;;;;;;14.85;59.90;101731.88;4944113;28;20086;-62
2022/06/04 02:05:19;;;;;;;13.95;4.32;;;;;;;14.79;60.18;101725.66;4941320;29;20475;-62
2022/06/04 02:07:48;;;;;;;15.20;4.55;;;;;;;14.82;59.21;101723.00;4943542;29;20035;-61
2022/06/04 02:10:23;;;;;;;14.57;4.45;;;;;;;14.73;59.55;101719.44;4941634;29;20047;-62
2022/06/04 02:12:51;;;;;;;14.93;4.43;;;;;;;14.70;60.32;101724.75;4943076;29;20454;-62
2022/06/04 02:15:19;;;;;;;13.27;4.40;;;;;;;14.72;60.50;101722.97;4941873;29;20039;-62
2022/06/04 02:17:50;;;;;;;12.43;4.18;;;;;;;14.70;61.16;101730.09;4943412;29;20071;-62
2022/06/04 02:20:16;;;;;;;14.65;4.78;;;;;;;14.64;61.36;101734.50;4944554;29;20039;-62
2022/06/04 02:22:42;;;;;;;12.15;4.40;;;;;;;14.59;61.75;101733.56;4973301;28;20052;-63
2022/06/04 02:25:10;;;;;;;13.68;4.50;;;;;;;14.59;62.11;101744.22;5044124;28;20108;-62
2022/06/04 02:27:35;;;;;;;13.15;4.50;;;;;;;14.59;62.21;101730.91;5044372;28;20046;-63
2022/06/04 02:30:01;;;;;;;13.18;4.60;;;;;;;14.60;61.62;101731.78;5046951;28;20151;-62
2022/06/04 02:33:03;;;;;;;13.85;4.40;;;;;;;14.52;61.42;101734.44;5044768;28;20048;-63
2022/06/04 02:35:43;;;;;;;14.00;4.35;;;;;;;14.46;62.22;101734.44;5045603;28;20026;-62
2022/06/04 02:38:23;;;;;;;16.13;4.70;;;;;;;14.39;62.97;101730.00;5040417;28;20067;-63
2022/06/04 02:40:59;;;;;;;14.30;4.50;;;;;;;14.41;62.96;101729.09;5042948;28;20025;-61
2022/06/04 02:43:45;;;;;;;15.82;4.80;;;;;;;14.36;63.26;101712.25;5044938;28;20391;-62
2022/06/04 02:46:22;;;;;;;13.48;4.50;;;;;;;14.37;62.72;101710.47;5040541;28;20022;-62
2022/06/04 02:48:59;;;;;;;14.10;4.80;;;;;;;14.24;64.12;101709.53;5046401;28;20033;-62
2022/06/04 02:51:31;;;;;;;16.17;4.57;;;;;;;14.22;64.08;101692.69;5046217;28;20467;-61
2022/06/04 02:53:57;;;;;;;15.05;4.90;;;;;;;14.19;64.64;101680.28;5044840;28;20064;-61
2022/06/04 02:56:30;;;;;;;14.70;4.95;;;;;;;14.06;64.62;101676.69;5045445;28;20033;-61
2022/06/04 02:59:00;;;;;;;14.73;4.90;;;;;;;14.06;65.59;101662.53;5044963;28;20021;-61
2022/06/04 03:01:26;;;;;;;15.88;4.95;;;;;;;14.06;65.50;101660.75;5045719;28;20483;-62
2022/06/04 03:03:52;;;;;;;16.13;4.97;;;;;;;14.05;65.75;101668.72;5045295;28;20025;-61
2022/06/04 03:06:36;;;;;;;15.30;4.90;;;;;;;14.02;65.77;101666.06;5044789;28;20416;-61
2022/06/04 03:09:05;;;;;;;16.90;5.10;;;;;;;13.97;67.21;101667.81;5044281;28;20025;-61
2022/06/04 03:11:35;;;;;;;15.25;5.15;;;;;;;13.93;66.38;101666.91;5046031;28;20147;-61
2022/06/04 03:14:00;;;;;;;18.88;5.32;;;;;;;13.93;66.91;101658.94;5043898;28;20056;-61
2022/06/04 03:16:35;;;;;;;16.00;5.43;;;;;;;13.84;68.07;101664.22;5045241;28;20463;-61
2022/06/04 03:19:01;;;;;;;16.52;5.50;;;;;;;13.91;67.93;101658.06;5044176;28;20137;-61
2022/06/04 03:21:28;;;;;;;18.08;5.90;;;;;;;13.78;69.09;101670.41;5045126;28;20479;-61
2022/06/04 03:23:53;;;;;;;17.30;5.50;;;;;;;13.77;69.75;101672.19;5044840;28;20364;-61
2022/06/04 03:26:18;;;;;;;17.73;5.78;;;;;;;13.73;69.74;101664.16;5044571;28;20021;-61
2022/06/04 03:28:44;;;;;;;17.73;6.10;;;;;;;13.76;69.40;101669.50;5045788;28;20459;-61
2022/06/04 03:31:09;;;;;;;17.80;6.35;;;;;;;13.67;71.27;101662.38;5042854;28;20036;-62
2022/06/04 03:33:34;;;;;;;18.23;6.13;;;;;;;13.63;71.61;101663.25;5046146;28;20044;-65
2022/06/04 03:36:00;;;;;;;18.70;6.47;;;;;;;13.67;72.11;101666.81;5043518;28;20030;-66
2022/06/04 03:38:25;;;;;;;18.52;6.50;;;;;;;13.69;72.03;101670.34;5044937;28;20032;-66
2022/06/04 03:40:50;;;;;;;18.23;6.15;;;;;;;13.69;72.54;101673.00;5045102;28;20430;-67
2022/06/04 03:43:16;;;;;;;18.65;6.75;;;;;;;13.70;72.95;101674.78;5043292;28;20093;-67
2022/06/04 03:45:41;;;;;;;18.67;6.63;;;;;;;13.65;72.66;101681.88;5046123;28;20032;-66
2022/06/04 03:48:06;;;;;;;20.40;7.00;;;;;;;13.59;73.41;101682.72;5042595;28;20022;-67
2022/06/04 03:50:32;;;;;;;19.52;6.78;;;;;;;13.53;74.36;101688.88;5045436;28;20040;-66
2022/06/04 03:52:57;;;;;;;18.15;6.55;;;;;;;13.54;74.37;101680.03;5043516;28;20109;-66
2022/06/04 03:55:24;;;;;;;18.83;6.50;;;;;;;13.54;74.57;101685.34;5044053;28;20473;-67
2022/06/04 03:57:50;;;;;;;20.10;6.90;;;;;;;13.54;74.88;101682.69;5044531;28;20025;-67
2022/06/04 04:00:35;;;;;;;20.15;7.28;;;;;;;13.47;75.42;101690.59;5043287;28;20029;-67
2022/06/04 04:03:06;;;;;;;19.65;7.05;;;;;;;13.48;75.13;101695.03;5043503;28;20630;-67
2022/06/04 04:05:35;;;;;;;18.60;7.07;;;;;;;13.40;76.70;101695.88;5045296;28;20043;-66
2022/06/04 04:08:03;;;;;;;18.50;6.80;;;;;;;13.36;78.12;101694.09;5042878;28;20499;-65
2022/06/04 04:10:30;;;;;;;20.80;7.18;;;;;;;13.39;78.05;101694.09;5044369;28;20495;-65
2022/06/04 04:12:56;;;;;;;18.08;6.53;;;;;;;13.41;78.00;101688.78;5043611;28;20032;-67
2022/06/04 04:15:22;;;;;;;18.13;6.78;;;;;;;13.38;78.75;101697.66;5043725;28;20035;-67
2022/06/04 04:17:49;;;;;;;19.45;7.10;;;;;;;13.42;78.93;101704.72;5044664;28;20025;-66
2022/06/04 04:20:17;;;;;;;18.63;6.93;;;;;;;13.45;78.66;101705.66;5042593;28;20038;-67
2022/06/04 04:22:43;;;;;;;20.75;7.35;;;;;;;13.47;78.96;101703.88;5045326;28;20414;-65
2022/06/04 04:25:09;;;;;;;19.83;7.50;;;;;;;13.46;79.55;101703.00;5042092;28;20022;-67
2022/06/04 04:27:36;;;;;;;19.02;7.10;;;;;;;13.52;78.84;101707.47;5045249;28;20380;-65
2022/06/04 04:30:04;;;;;;;18.75;6.78;;;;;;;13.52;79.29;101708.34;5042485;28;20022;-67
2022/06/04 04:32:31;;;;;;;19.35;7.28;;;;;;;13.57;79.35;101706.63;5044165;28;20045;-66
2022/06/04 04:34:57;;;;;;;19.38;7.25;;;;;;;13.54;79.46;101717.22;5043288;28;20032;-67
2022/06/04 04:37:22;;;;;;;19.30;7.15;;;;;;;13.62;79.68;101721.69;5043390;28;20489;-67
2022/06/04 04:39:48;;;;;;;19.92;6.90;;;;;;;13.66;80.13;101729.69;5044572;28;20379;-67
2022/06/04 04:42:13;;;;;;;20.40;7.40;;;;;;;13.68;79.68;101727.03;5041243;28;20036;-65
2022/06/04 04:44:38;;;;;;;18.73;7.20;;;;;;;13.69;79.78;101731.44;5044920;28;20071;-66
2022/06/04 04:47:04;;;;;;;20.30;7.30;;;;;;;13.70;79.58;101738.56;5042026;28;20484;-67
2022/06/04 04:49:29;;;;;;;20.40;7.45;;;;;;;13.67;80.51;101733.22;5042739;28;20037;-67
2022/06/04 04:51:55;;;;;;;20.73;7.50;;;;;;;13.67;80.89;101733.22;5042827;28;20021;-67
2022/06/04 04:54:20;;;;;;;20.98;7.53;;;;;;;13.71;80.74;101750.97;5043029;28;20026;-67
2022/06/04 04:56:46;;;;;;;19.80;7.50;;;;;;;13.76;80.79;101743.88;5044177;28;20021;-65
2022/06/04 04:59:12;;;;;;;20.77;7.72;;;;;;;13.77;81.36;101748.34;5041578;28;20033;-66
2022/06/04 05:01:37;;;;;;;20.42;7.60;;;;;;;13.84;81.26;101752.81;5043572;28;20055;-67
2022/06/04 05:04:03;;;;;;;20.00;7.78;;;;;;;13.87;80.84;101746.63;5041697;28;20041;-68
2022/06/04 05:06:29;;;;;;;20.48;7.28;;;;;;;13.93;81.16;101746.66;5043759;28;20032;-67
2022/06/04 05:08:55;;;;;;;20.50;7.53;;;;;;;14.01;80.22;101747.59;5042933;28;20017;-67
2022/06/04 05:11:23;;;;;;;21.98;7.88;;;;;;;14.01;80.16;101746.66;5042422;28;20507;-67
2022/06/04 05:13:49;;;;;;;21.27;8.90;;;;;;;14.03;80.70;101750.25;5043302;28;20051;-66
2022/06/04 05:16:27;;;;;;;21.65;7.43;;;;;;;14.10;80.53;101749.38;5041498;28;20029;-67
2022/06/04 05:18:53;;;;;;;20.23;7.60;;;;;;;14.09;80.18;101755.56;5042768;28;20060;-62
2022/06/04 05:21:19;;;;;;;20.15;7.78;;;;;;;14.00;79.65;101750.22;5042174;28;20056;-61
2022/06/04 05:23:44;;;;;;;20.77;7.45;;;;;;;14.07;81.14;101757.34;5044453;28;20036;-62
2022/06/04 05:26:09;;;;;;;19.70;7.55;;;;;;;14.15;80.72;101765.34;5040969;28;20104;-62
2022/06/04 05:28:35;;;;;;;21.00;7.60;;;;;;;14.18;80.48;101755.59;5043953;28;20021;-62
2022/06/04 05:31:00;;;;;;;20.38;8.02;;;;;;;14.19;81.33;101753.84;5042271;28;20028;-61
2022/06/04 05:33:25;;;;;;;20.35;7.80;;;;;;;14.21;80.89;101758.31;5042476;28;20056;-62
2022/06/04 05:35:51;;;;;;;22.30;8.02;;;;;;;14.19;81.59;101761.84;5042878;28;20021;-62
2022/06/04 05:38:16;;;;;;;21.25;8.23;;;;;;;14.18;81.79;101762.72;5041510;28;20025;-66
2022/06/04 05:40:41;;;;;;;20.25;8.13;;;;;;;14.18;81.90;101768.91;5044124;28;20068;-63
2022/06/04 05:43:07;;;;;;;20.58;8.45;;;;;;;14.15;81.74;101773.34;5036575;28;20061;-62
2022/06/04 05:45:32;;;;;;;19.73;8.40;;;;;;;14.21;82.21;101779.56;5043638;28;20052;-62
2022/06/04 05:47:57;;;;;;;21.40;8.48;;;;;;;14.27;82.44;101779.59;5041929;28;20094;-63
2022/06/04 05:50:23;;;;;;;20.38;8.10;;;;;;;14.39;81.81;101783.19;5042358;28;20061;-61
2022/06/04 05:52:48;;;;;;;20.70;8.15;;;;;;;14.44;80.86;101779.63;5043441;28;20029;-63
2022/06/04 05:55:13;;;;;;;20.73;8.10;;;;;;;14.39;80.90;101780.53;5043882;28;20037;-63
2022/06/04 05:57:39;;;;;;;20.83;8.32;;;;;;;14.46;80.52;101785.00;5048340;28;20025;-61
2022/06/04 06:00:08;;;;;;;21.83;8.43;;;;;;;14.45;80.76;101788.53;5044860;28;20049;-61
2022/06/04 06:02:34;;;;;;;21.17;8.40;;;;;;;14.45;80.82;101783.19;5047402;28;20032;-61
2022/06/04 06:05:00;;;;;;;20.67;8.18;;;;;;;14.59;80.58;101777.91;5045573;28;20032;-62
2022/06/04 06:07:26;;;;;;;20.58;8.52;;;;;;;14.66;80.04;101786.84;5046175;28;20033;-62
2022/06/04 06:09:51;;;;;;;20.73;8.65;;;;;;;14.71;80.18;101785.06;5046859;28;20036;-62
2022/06/04 06:12:16;;;;;;;20.75;8.50;;;;;;;14.72;79.09;101786.84;5045153;28;20369;-66
2022/06/04 06:14:42;;;;;;;22.90;8.90;;;;;;;14.75;80.30;101784.19;5047877;28;20025;-67
2022/06/04 06:17:07;;;;;;;20.70;8.60;;;;;;;14.83;79.68;101785.09;5044310;28;20380;-67
2022/06/04 06:19:33;;;;;;;20.58;8.70;;;;;;;14.94;79.58;101783.34;5047210;28;20029;-67
2022/06/04 06:21:58;;;;;;;21.13;8.52;;;;;;;15.05;78.80;101779.81;5045286;28;20116;-67
2022/06/04 06:24:23;;;;;;;20.63;9.02;;;;;;;15.11;77.72;101774.47;5038091;28;20036;-67
2022/06/04 06:26:55;;;;;;;20.95;8.63;;;;;;;15.22;78.58;101785.09;5040446;28;20079;-66
2022/06/04 06:29:23;;;;;;;20.42;8.77;;;;;;;15.29;77.13;101782.47;5039286;28;20109;-66
2022/06/04 06:31:49;;;;;;;21.05;8.73;;;;;;;15.37;77.00;101782.44;5033849;28;20057;-67
2022/06/04 06:34:15;;;;;;;20.75;8.52;;;;;;;15.40;76.51;101789.56;5041114;28;20033;-68
2022/06/04 06:36:41;;;;;;;22.02;8.60;;;;;;;15.47;76.51;101797.53;5044612;28;20065;-70
2022/06/04 06:39:06;;;;;;;21.23;8.88;;;;;;;15.55;75.22;101794.84;5077899;28;20049;-66
2022/06/04 06:41:31;;;;;;;21.73;9.00;;;;;;;15.59;75.53;101795.75;5044612;28;20027;-68
2022/06/04 06:43:57;;;;;;;22.23;9.20;;;;;;;15.60;75.02;101800.22;5045840;28;20053;-67
2022/06/04 06:46:27;;;;;;;22.13;9.50;;;;;;;15.66;76.61;101803.72;5039836;28;20028;-65
2022/06/04 06:48:59;;;;;;;21.73;9.32;;;;;;;15.79;75.57;101806.44;5042420;28;20037;-69
2022/06/04 06:51:32;;;;;;;21.88;9.60;;;;;;;15.74;74.02;101802.84;5041951;28;20029;-67
2022/06/04 06:53:58;;;;;;;22.42;9.80;;;;;;;15.75;74.22;101801.94;5041190;28;20043;-66
2022/06/04 06:56:27;;;;;;;21.65;9.68;;;;;;;15.67;74.67;101804.66;5040478;28;20387;-65
2022/06/04 06:58:54;;;;;;;21.92;9.90;;;;;;;15.62;74.88;101799.28;5047042;28;20083;-65
2022/06/04 07:01:21;;;;;;;21.77;9.70;;;;;;;15.66;73.72;101801.06;5045058;28;20056;-68
2022/06/04 07:03:46;;;;;;;21.50;9.82;;;;;;;15.78;74.84;101805.53;5046661;28;20056;-65
2022/06/04 07:06:13;;;;;;;21.77;9.68;;;;;;;15.84;74.14;101793.97;5043088;28;20033;-66
2022/06/04 07:08:40;;;;;;;21.73;9.80;;;;;;;15.88;74.43;101805.53;5041918;28;20435;-67
2022/06/04 07:11:06;;;;;;;22.50;10.30;;;;;;;15.81;73.58;101804.63;5048861;28;20045;-67
2022/06/04 07:13:31;;;;;;;21.65;10.10;;;;;;;15.67;74.61;101800.19;5040945;28;20479;-66
2022/06/04 07:15:58;;;;;;;22.58;10.07;;;;;;;15.68;75.01;101804.63;5039819;28;20021;-66
2022/06/04 07:18:24;;;;;;;22.15;10.30;;;;;;;15.72;73.91;101804.63;5046500;28;20029;-65
2022/06/04 07:20:50;;;;;;;22.30;9.55;;;;;;;15.80;73.90;101806.41;5043315;28;20056;-66
2022/06/04 07:23:16;;;;;;;23.10;10.30;;;;;;;15.77;73.37;101809.06;5043514;28;20527;-66
2022/06/04 07:25:44;;;;;;;22.08;10.18;;;;;;;15.74;73.27;101813.50;5045783;28;20464;-64
2022/06/04 07:28:11;;;;;;;22.65;9.98;;;;;;;15.74;73.84;101813.50;5046047;28;20013;-65
2022/06/04 07:30:37;;;;;;;23.05;10.38;;;;;;;15.89;73.93;101810.84;5041383;28;20068;-66
2022/06/04 07:33:02;;;;;;;21.85;9.98;;;;;;;15.97;73.77;101814.34;5043032;28;20077;-63
2022/06/04 07:35:28;;;;;;;22.02;9.98;;;;;;;15.93;74.38;101820.63;5046041;28;20029;-64
2022/06/04 07:37:53;;;;;;;22.88;10.27;;;;;;;15.95;74.33;101823.28;5045631;28;20488;-63
2022/06/04 07:40:19;;;;;;;21.95;10.05;;;;;;;16.02;73.11;101825.91;5046815;28;20108;-63
2022/06/04 07:42:48;;;;;;;22.55;10.27;;;;;;;16.07;73.02;101833.03;5042866;28;20437;-63
2022/06/04 07:45:13;;;;;;;22.38;10.18;;;;;;;16.04;72.98;101832.13;5045785;28;20029;-63
2022/06/04 07:47:41;;;;;;;21.35;10.38;;;;;;;16.03;72.39;101827.69;5043290;28;20475;-63
2022/06/04 07:50:12;;;;;;;21.98;10.45;;;;;;;16.04;73.12;101826.78;5045905;28;20029;-64
2022/06/04 07:52:37;;;;;;;22.63;10.30;;;;;;;16.11;73.42;101829.47;5045387;28;20021;-64
2022/06/04 07:55:07;;;;;;;23.50;10.27;;;;;;;16.23;73.08;101833.84;5044320;28;20114;-63
2022/06/04 07:57:37;;;;;;;21.55;10.02;;;;;;;16.37;72.94;101821.34;5045059;28;20099;-64
2022/06/04 08:00:05;;;;;;;23.10;10.43;;;;;;;16.50;71.44;101828.41;5045013;28;20033;-63
2022/06/04 08:02:30;;;;;;;22.35;10.00;;;;;;;16.46;70.12;101831.09;5046382;28;20025;-63
2022/06/04 08:04:56;;;;;;;22.00;10.13;;;;;;;16.45;71.28;101830.19;5041651;28;20029;-63
2022/06/04 08:07:22;;;;;;;22.10;10.27;;;;;;;16.50;70.29;101827.53;5045849;28;20021;-63
2022/06/04 08:09:48;;;;;;;23.42;10.75;;;;;;;16.55;70.65;101839.94;5044487;28;20087;-63
2022/06/04 08:12:14;;;;;;;23.10;10.68;;;;;;;16.59;69.72;101839.94;5047314;28;20029;-64
2022/06/04 08:14:40;;;;;;;21.50;10.00;;;;;;;16.70;70.66;101836.31;5046361;28;20021;-63
2022/06/04 08:17:06;;;;;;;23.60;10.50;;;;;;;16.74;69.56;101827.38;5045875;28;20029;-63
2022/06/04 08:19:32;;;;;;;22.33;10.35;;;;;;;16.67;69.27;101822.09;5043177;28;20028;-64
2022/06/04 08:21:58;;;;;;;23.25;10.82;;;;;;;16.64;70.28;101820.31;5040284;28;20357;-63
2022/06/04 08:24:24;;;;;;;23.17;10.45;;;;;;;16.55;70.99;101807.91;5042150;28;20033;-63
2022/06/04 08:26:58;;;;;;;22.27;10.68;;;;;;;16.52;70.67;101818.59;5040240;28;20128;-63
2022/06/04 08:29:28;;;;;;;22.20;10.63;;;;;;;16.60;69.98;101812.34;5042059;28;20049;-63
2022/06/04 08:31:53;;;;;;;22.23;10.63;;;;;;;16.58;70.43;101803.47;5046281;28;20152;-63
2022/06/04 08:34:19;;;;;;;22.73;10.43;;;;;;;16.61;68.80;101801.66;5043216;28;20116;-63
2022/06/04 08:36:44;;;;;;;22.52;10.38;;;;;;;16.71;69.24;101805.16;5045069;28;20167;-64
2022/06/04 08:39:10;;;;;;;23.25;10.75;;;;;;;16.86;69.19;101807.75;5044423;28;20059;-63
2022/06/04 08:42:02;;;;;;;23.05;11.15;;;;;;;17.06;69.62;101807.63;5045194;28;20025;-65
2022/06/04 08:44:37;;;;;;;22.63;10.27;;;;;;;17.14;68.65;101804.91;5039759;28;20029;-63
2022/06/04 08:47:16;;;;;;;23.00;10.75;;;;;;;17.25;68.36;101816.38;5040568;28;20021;-63
2022/06/04 08:49:58;;;;;;;23.63;10.45;;;;;;;17.53;66.71;101825.94;5040178;28;20115;-67
2022/06/04 08:52:32;;;;;;;22.63;10.95;;;;;;;17.60;65.77;101822.31;5045596;28;20059;-64
2022/06/04 08:58:01;;;;;;;23.50;10.75;;;;;;;18.23;63.84;101832.41;5042394;28;20044;-64
2022/06/04 09:00:44;;;;;;;21.58;10.15;;;;;;;18.59;61.14;101834.63;5043207;28;20116;-64
2022/06/04 09:03:12;;;;;;;22.98;10.50;;;;;;;18.79;59.66;101831.66;5042513;28;20052;-65
2022/06/04 09:06:11;;;;;;;22.08;10.82;;;;;;;18.95;59.73;101837.72;5039366;28;20025;-64
2022/06/04 09:08:55;;;;;;;22.35;10.27;;;;;;;19.32;58.30;101831.78;5037764;28;20040;-65
2022/06/04 09:11:37;;;;;;;21.58;10.02;;;;;;;19.73;56.59;101830.19;5039201;28;20033;-64
2022/06/04 09:14:55;;;;;;;20.90;9.90;;;;;;;20.29;54.47;101832.69;5043276;28;20024;-63
2022/06/04 09:17:38;;;;;;;20.92;9.77;;;;;;;20.70;52.04;101825.56;5021845;28;20047;-64
2022/06/04 09:20:17;;;;;;;21.10;9.50;;;;;;;21.04;52.48;101829.28;5020320;28;20512;-63
2022/06/04 09:22:47;;;;;;;22.42;10.13;;;;;;;21.23;52.32;101827.03;5019065;28;20025;-63
2022/06/04 09:25:14;;;;;;;21.13;9.68;;;;;;;21.30;49.91;101822.41;5021646;28;20496;-63
2022/06/04 09:27:45;;;;;;;22.98;10.13;;;;;;;21.39;50.00;101816.78;5020556;28;20048;-63
2022/06/04 09:30:20;;;;;;;23.05;9.98;;;;;;;21.80;50.37;101820.22;5013250;28;20026;-64
2022/06/04 09:32:56;;;;;;;21.08;9.80;;;;;;;21.59;48.36;101837.81;5023375;28;20054;-63
2022/06/04 09:35:26;;;;;;;21.15;9.70;;;;;;;21.62;48.43;101831.47;5018591;28;20042;-63
2022/06/04 09:37:52;;;;;;;21.90;10.02;;;;;;;21.97;47.85;101838.59;5022152;28;20033;-65
2022/06/04 09:40:33;;;;;;;23.40;10.20;;;;;;;22.70;48.30;101842.81;5020447;28;20068;-65
2022/06/04 09:43:04;;;;;;;23.27;10.15;;;;;;;22.90;45.95;101834.06;5021963;28;20116;-65
2022/06/04 09:45:29;;;;;;;21.00;9.87;;;;;;;22.86;45.40;101837.78;5020298;28;20032;-64
2022/06/04 09:47:57;;;;;;;21.48;10.10;;;;;;;22.41;46.45;101824.81;5021229;28;20124;-65
2022/06/04 09:50:28;;;;;;;22.55;10.63;;;;;;;;;;5015594;28;20068;-65
2022/06/04 09:53:20;;;;;;;21.98;10.50;;;;;;;22.74;47.26;101839.06;5025307;28;20388;-64
2022/06/04 09:55:51;;;;;;;21.75;9.73;;;;;;;23.31;45.50;101839.97;5041620;28;20033;-64
2022/06/04 09:58:38;;;;;;;21.33;10.00;;;;;;;23.75;44.68;101838.47;5042182;28;20021;-64
2022/06/04 10:01:20;;;;;;;21.02;10.15;;;;;;;23.56;42.95;101838.25;5042789;28;20052;-64
2022/06/04 10:03:58;;;;;;;22.33;10.27;;;;;;;23.10;44.91;101835.25;5043421;28;20026;-65
2022/06/04 10:06:26;;;;;;;21.77;10.13;;;;;;;23.35;43.98;101838.03;5043262;28;20047;-64
2022/06/04 10:11:49;;;;;;;22.17;10.65;;;;;;;22.70;45.40;101848.19;5037987;28;20036;-67
2022/06/04 10:14:15;;;;;;;22.35;10.57;;;;;;;22.78;46.47;101861.41;5040106;28;20487;-68
2022/06/04 10:16:44;;;;;;;20.83;9.95;;;;;;;24.10;43.25;101855.25;5043288;28;20033;-65
2022/06/04 10:19:12;;;;;;;23.17;10.45;;;;;;;24.82;40.82;101849.84;5040735;28;20029;-67
2022/06/04 10:21:40;;;;;;;22.27;10.35;;;;;;;25.03;40.53;101856.22;5043202;28;20060;-67
2022/06/04 10:24:18;;;;;;;23.40;11.30;;;;;;;25.52;39.97;101849.75;5041672;28;20040;-66
2022/06/04 10:27:25;;;;;;;22.35;10.52;;;;;;;25.57;39.56;101854.00;5043560;28;20376;-69
2022/06/04 10:30:09;;;;;;;21.45;10.63;;;;;;;24.62;40.98;101858.72;5034921;28;20049;-69
2022/06/04 10:32:49;;;;;;;22.67;10.40;;;;;;;24.22;42.86;101841.31;5039334;28;20484;-68
2022/06/04 10:35:36;;;;;;;21.17;10.80;;;;;;;24.08;42.89;101851.75;5038283;28;20037;-69
2022/06/04 10:38:15;;;;;;;22.35;10.98;;;;;;;24.21;42.95;101842.25;5037806;28;20022;-69
2022/06/04 10:41:03;;;;;;;21.25;10.75;;;;;;;24.36;42.63;101848.88;5040345;28;20037;-66
2022/06/04 10:43:45;;;;;;;22.83;12.32;;;;;;;24.47;42.76;101843.09;5040841;28;20112;-70
2022/06/04 10:46:20;;;;;;;22.83;11.05;;;;;;;25.40;40.34;101848.44;5042295;28;20042;-68
2022/06/04 10:49:17;;;;;;;21.83;10.57;;;;;;;26.18;39.29;101854.97;5037605;28;20033;-68
2022/06/04 10:51:59;;;;;;;21.48;10.45;;;;;;;27.04;39.27;101855.50;5039403;28;20554;-67
2022/06/04 10:54:41;;;;;;;21.60;10.77;;;;;;;27.77;36.52;101851.84;5036992;28;20160;-67
2022/06/04 10:57:41;;;;;;;22.45;10.57;;;;;;;27.95;35.90;101855.44;5039757;28;20113;-67
2022/06/04 11:00:18;;;;;;;21.40;10.60;;;;;;;28.98;34.81;101857.06;5024640;28;20037;-68
2022/06/04 11:02:48;;;;;;;21.35;10.45;;;;;;;28.57;34.03;101863.88;5043550;28;20128;-68
2022/06/04 11:05:26;;;;;;;22.30;10.00;;;;;;;28.04;34.87;101865.84;5044185;28;20051;-66
2022/06/04 11:08:04;;;;;;;23.98;10.65;;;;;;;28.24;34.10;101859.34;5042815;28;20064;-67
2022/06/04 11:10:50;;;;;;;22.23;10.50;;;;;;;29.42;33.84;101861.78;5038143;28;20029;-65
2022/06/04 11:13:50;;;;;;;21.13;9.95;;;;;;;31.31;31.52;101863.59;5039240;28;20029;-68
2022/06/04 11:16:38;;;;;;;23.45;10.60;;;;;;;32.87;30.35;101853.53;5033779;28;20487;-65
2022/06/04 11:19:15;;;;;;;21.42;10.48;;;;;;;32.72;28.26;101854.66;5040220;28;20040;-65
2022/06/04 11:21:53;;;;;;;21.80;10.20;;;;;;;31.20;28.42;101861.59;5041378;28;20121;-65
2022/06/04 11:24:26;;;;;;;21.88;10.02;;;;;;;30.43;30.57;101865.59;5039806;28;20037;-65
2022/06/04 11:27:11;;;;;;;20.98;10.15;;;;;;;30.69;30.45;101864.94;5044885;28;20476;-65
2022/06/04 11:29:38;;;;;;;21.10;10.68;;;;;;;30.57;30.08;101861.16;5033910;28;20031;-65
2022/06/04 11:32:35;;;;;;;21.70;10.52;;;;;;;30.00;31.36;101854.69;5043861;28;20050;-66
2022/06/04 11:35:28;;;;;;;20.85;10.65;;;;;;;29.36;32.88;101860.31;5041488;28;20079;-67
2022/06/04 11:38:31;;;;;;;20.85;10.40;;;;;;;29.02;32.90;101850.47;5044462;28;20029;-66
2022/06/04 11:41:28;;;;;;;23.42;10.65;;;;;;;29.94;32.69;101846.91;5037235;28;20037;-66
2022/06/04 11:44:26;;;;;;;20.70;10.10;;;;;;;31.29;30.57;101837.28;5037874;28;20029;-67
2022/06/04 11:47:00;;;;;;;22.90;12.10;;;;;;;33.30;27.52;101836.59;5038717;28;20041;-65